London Mills, Illinois
Current Conditions -  °F | °C
As of 8:35 AM on Friday 24 Oct 2014 (Local Time) from KGBG Reporting Station
Moderate Fog Moderate Fog  
Wind Chill: 52°   Ceiling: 300
Heat Index: 52°   Visibility: 0mi
Dew Point: 52°   Wind: 3mph
Humidity: 100%   Direction: 80°E
Pressure: 30.08"   Gusts: NA
Location:  40.71°N, 90.27°W
Report Text: KGBG 241335Z AUTO 08003KT M1/4SM FG OVC003 11/11 A3008 RMK AO2 T01100110
Loading
Personal Weather Stations






























Interactive Weather Map New forecast layout! Learn more

10-Day Weather Forecast

Advertisements
Track Severe Weather on mobile